Terminal Aerodrome Forecast
Issued by NWS

Home | Current Version | Previous Version | Text Only | Print | Product List | Glossary On
Versions: 1 2 3 4 5 6 7 8 9 10 11 12 13 14
379
FTUS45 KABQ 291132
TAFTCC
TAF
KTCC 291132Z 2912/3012 07007KT P6SM SCT100
     FM291700 17011KT P6SM FEW100
     FM292200 16013KT P6SM SCT090
     FM300200 14015KT P6SM BKN120=

USA.gov is the U.S. government's official web portal to all federal, state and local government web resources and services.